sensor_id;sensor_type;location;lat;lon;timestamp;P1;durP1;ratioP1;P2;durP2;ratioP2
48911;SDS011;34722;52.108;5.044;2022-08-01T00:02:16;18.88;;;11.40;;
48911;SDS011;34722;52.108;5.044;2022-08-01T00:04:41;18.10;;;11.38;;
48911;SDS011;34722;52.108;5.044;2022-08-01T00:07:07;21.17;;;11.48;;
48911;SDS011;34722;52.108;5.044;2022-08-01T00:09:33;18.27;;;11.23;;
48911;SDS011;34722;52.108;5.044;2022-08-01T00:11:58;21.83;;;12.48;;
48911;SDS011;34722;52.108;5.044;2022-08-01T00:14:24;18.80;;;10.93;;
48911;SDS011;34722;52.108;5.044;2022-08-01T00:16:50;25.23;;;13.20;;
48911;SDS011;34722;52.108;5.044;2022-08-01T00:19:15;19.27;;;12.82;;
48911;SDS011;34722;52.108;5.044;2022-08-01T00:21:41;24.45;;;12.55;;
48911;SDS011;34722;52.108;5.044;2022-08-01T00:24:07;27.75;;;13.75;;
48911;SDS011;34722;52.108;5.044;2022-08-01T00:26:33;27.92;;;14.57;;
48911;SDS011;34722;52.108;5.044;2022-08-01T00:28:58;32.60;;;13.63;;
48911;SDS011;34722;52.108;5.044;2022-08-01T00:31:24;28.90;;;16.65;;
48911;SDS011;34722;52.108;5.044;2022-08-01T00:33:49;25.52;;;14.45;;
48911;SDS011;34722;52.108;5.044;2022-08-01T00:36:15;28.98;;;15.57;;
48911;SDS011;34722;52.108;5.044;2022-08-01T00:38:41;30.27;;;15.20;;
48911;SDS011;34722;52.108;5.044;2022-08-01T00:41:06;28.45;;;14.38;;
48911;SDS011;34722;52.108;5.044;2022-08-01T00:43:32;24.15;;;14.40;;
48911;SDS011;34722;52.108;5.044;2022-08-01T00:45:59;23.42;;;13.63;;
48911;SDS011;34722;52.108;5.044;2022-08-01T00:48:25;27.17;;;14.85;;
48911;SDS011;34722;52.108;5.044;2022-08-01T00:50:50;25.42;;;13.25;;
48911;SDS011;34722;52.108;5.044;2022-08-01T00:53:19;23.85;;;12.55;;
48911;SDS011;34722;52.108;5.044;2022-08-01T00:55:45;24.50;;;11.93;;
48911;SDS011;34722;52.108;5.044;2022-08-01T00:58:15;21.08;;;11.57;;
48911;SDS011;34722;52.108;5.044;2022-08-01T01:00:40;21.52;;;11.68;;
48911;SDS011;34722;52.108;5.044;2022-08-01T01:03:06;23.92;;;12.30;;
48911;SDS011;34722;52.108;5.044;2022-08-01T01:05:33;24.67;;;11.40;;
48911;SDS011;34722;52.108;5.044;2022-08-01T01:08:12;23.75;;;12.68;;
48911;SDS011;34722;52.108;5.044;2022-08-01T01:10:48;25.17;;;13.38;;
48911;SDS011;34722;52.108;5.044;2022-08-01T01:16:14;25.80;;;12.10;;
48911;SDS011;34722;52.108;5.044;2022-08-01T01:18:51;25.77;;;12.05;;
48911;SDS011;34722;52.108;5.044;2022-08-01T01:29:48;28.67;;;13.80;;
48911;SDS011;34722;52.108;5.044;2022-08-01T01:32:22;28.05;;;13.88;;
48911;SDS011;34722;52.108;5.044;2022-08-01T01:34:59;33.28;;;15.02;;
48911;SDS011;34722;52.108;5.044;2022-08-01T01:37:40;31.77;;;14.77;;
48911;SDS011;34722;52.108;5.044;2022-08-01T01:40:09;28.27;;;12.95;;
48911;SDS011;34722;52.108;5.044;2022-08-01T01:42:36;25.27;;;13.30;;
48911;SDS011;34722;52.108;5.044;2022-08-01T01:45:06;30.58;;;14.15;;
48911;SDS011;34722;52.108;5.044;2022-08-01T01:47:33;25.30;;;12.85;;
48911;SDS011;34722;52.108;5.044;2022-08-01T01:50:01;31.23;;;13.43;;
48911;SDS011;34722;52.108;5.044;2022-08-01T01:52:35;27.88;;;13.40;;
48911;SDS011;34722;52.108;5.044;2022-08-01T01:55:06;25.33;;;12.30;;
48911;SDS011;34722;52.108;5.044;2022-08-01T01:57:36;27.58;;;13.25;;
48911;SDS011;34722;52.108;5.044;2022-08-01T02:00:14;27.63;;;11.95;;
48911;SDS011;34722;52.108;5.044;2022-08-01T02:02:41;25.75;;;12.55;;
48911;SDS011;34722;52.108;5.044;2022-08-01T02:05:10;23.63;;;12.27;;
48911;SDS011;34722;52.108;5.044;2022-08-01T02:07:38;23.17;;;11.57;;
48911;SDS011;34722;52.108;5.044;2022-08-01T02:10:08;25.13;;;11.65;;
48911;SDS011;34722;52.108;5.044;2022-08-01T02:12:39;23.52;;;12.38;;
48911;SDS011;34722;52.108;5.044;2022-08-01T02:15:07;25.58;;;12.70;;
48911;SDS011;34722;52.108;5.044;2022-08-01T02:17:36;24.38;;;12.45;;
48911;SDS011;34722;52.108;5.044;2022-08-01T02:20:06;21.65;;;10.75;;
48911;SDS011;34722;52.108;5.044;2022-08-01T02:22:33;25.88;;;11.07;;
48911;SDS011;34722;52.108;5.044;2022-08-01T02:25:08;21.15;;;9.90;;
48911;SDS011;34722;52.108;5.044;2022-08-01T02:30:12;22.88;;;11.00;;
48911;SDS011;34722;52.108;5.044;2022-08-01T02:32:41;18.23;;;9.10;;
48911;SDS011;34722;52.108;5.044;2022-08-01T02:35:12;17.65;;;9.38;;
48911;SDS011;34722;52.108;5.044;2022-08-01T02:37:43;18.15;;;9.82;;
48911;SDS011;34722;52.108;5.044;2022-08-01T02:40:12;19.30;;;9.60;;
48911;SDS011;34722;52.108;5.044;2022-08-01T02:42:40;15.35;;;8.82;;
48911;SDS011;34722;52.108;5.044;2022-08-01T02:45:13;16.95;;;9.48;;
48911;SDS011;34722;52.108;5.044;2022-08-01T02:47:40;13.98;;;8.95;;
48911;SDS011;34722;52.108;5.044;2022-08-01T02:50:09;16.20;;;8.23;;
48911;SDS011;34722;52.108;5.044;2022-08-01T02:52:37;17.50;;;9.65;;
48911;SDS011;34722;52.108;5.044;2022-08-01T02:55:05;14.68;;;8.25;;
48911;SDS011;34722;52.108;5.044;2022-08-01T02:57:32;18.63;;;9.05;;
48911;SDS011;34722;52.108;5.044;2022-08-01T02:59:59;15.20;;;9.15;;
48911;SDS011;34722;52.108;5.044;2022-08-01T03:02:25;19.95;;;10.05;;
48911;SDS011;34722;52.108;5.044;2022-08-01T03:04:52;15.77;;;9.27;;
48911;SDS011;34722;52.108;5.044;2022-08-01T03:07:19;15.57;;;9.18;;
48911;SDS011;34722;52.108;5.044;2022-08-01T03:09:46;16.58;;;8.65;;
48911;SDS011;34722;52.108;5.044;2022-08-01T03:12:17;18.48;;;10.07;;
48911;SDS011;34722;52.108;5.044;2022-08-01T03:14:48;12.05;;;8.82;;
48911;SDS011;34722;52.108;5.044;2022-08-01T03:17:24;14.95;;;8.57;;
48911;SDS011;34722;52.108;5.044;2022-08-01T03:19:52;15.63;;;8.85;;
48911;SDS011;34722;52.108;5.044;2022-08-01T03:22:18;16.80;;;9.30;;
48911;SDS011;34722;52.108;5.044;2022-08-01T03:24:49;19.35;;;10.00;;
48911;SDS011;34722;52.108;5.044;2022-08-01T03:27:19;17.17;;;10.65;;
48911;SDS011;34722;52.108;5.044;2022-08-01T03:29:47;14.55;;;8.57;;
48911;SDS011;34722;52.108;5.044;2022-08-01T03:32:14;16.48;;;9.45;;
48911;SDS011;34722;52.108;5.044;2022-08-01T03:34:42;16.60;;;10.00;;
48911;SDS011;34722;52.108;5.044;2022-08-01T03:37:21;16.60;;;9.43;;
48911;SDS011;34722;52.108;5.044;2022-08-01T03:39:58;17.90;;;10.55;;
48911;SDS011;34722;52.108;5.044;2022-08-01T03:42:32;14.60;;;9.38;;
48911;SDS011;34722;52.108;5.044;2022-08-01T03:45:02;18.70;;;10.43;;
48911;SDS011;34722;52.108;5.044;2022-08-01T03:47:34;16.98;;;10.52;;
48911;SDS011;34722;52.108;5.044;2022-08-01T03:50:01;22.00;;;10.90;;
48911;SDS011;34722;52.108;5.044;2022-08-01T03:52:29;19.73;;;11.35;;
48911;SDS011;34722;52.108;5.044;2022-08-01T03:54:56;25.48;;;11.32;;
48911;SDS011;34722;52.108;5.044;2022-08-01T03:57:24;20.67;;;11.25;;
48911;SDS011;34722;52.108;5.044;2022-08-01T03:59:55;26.15;;;12.20;;
48911;SDS011;34722;52.108;5.044;2022-08-01T04:02:22;26.02;;;11.85;;
48911;SDS011;34722;52.108;5.044;2022-08-01T04:04:48;22.85;;;11.63;;
48911;SDS011;34722;52.108;5.044;2022-08-01T04:07:29;22.95;;;11.20;;
48911;SDS011;34722;52.108;5.044;2022-08-01T04:09:56;26.52;;;11.45;;
48911;SDS011;34722;52.108;5.044;2022-08-01T04:12:22;28.77;;;12.45;;
48911;SDS011;34722;52.108;5.044;2022-08-01T04:14:49;30.10;;;12.32;;
48911;SDS011;34722;52.108;5.044;2022-08-01T04:17:15;25.40;;;13.52;;
48911;SDS011;34722;52.108;5.044;2022-08-01T04:19:42;25.83;;;13.18;;
48911;SDS011;34722;52.108;5.044;2022-08-01T04:22:08;25.17;;;13.82;;
48911;SDS011;34722;52.108;5.044;2022-08-01T04:24:36;28.83;;;13.52;;
48911;SDS011;34722;52.108;5.044;2022-08-01T04:27:04;26.90;;;13.00;;
48911;SDS011;34722;52.108;5.044;2022-08-01T04:29:31;29.15;;;13.60;;
48911;SDS011;34722;52.108;5.044;2022-08-01T04:31:59;25.45;;;13.52;;
48911;SDS011;34722;52.108;5.044;2022-08-01T04:34:27;32.92;;;12.35;;
48911;SDS011;34722;52.108;5.044;2022-08-01T04:36:55;31.20;;;12.85;;
48911;SDS011;34722;52.108;5.044;2022-08-01T04:39:22;21.35;;;12.18;;
48911;SDS011;34722;52.108;5.044;2022-08-01T04:41:52;23.55;;;11.65;;
48911;SDS011;34722;52.108;5.044;2022-08-01T04:44:22;22.08;;;11.25;;
48911;SDS011;34722;52.108;5.044;2022-08-01T04:46:48;21.00;;;11.52;;
48911;SDS011;34722;52.108;5.044;2022-08-01T04:49:15;22.45;;;12.57;;
48911;SDS011;34722;52.108;5.044;2022-08-01T04:51:51;21.30;;;11.45;;
48911;SDS011;34722;52.108;5.044;2022-08-01T04:54:24;18.38;;;11.05;;
48911;SDS011;34722;52.108;5.044;2022-08-01T04:56:58;26.98;;;12.13;;
48911;SDS011;34722;52.108;5.044;2022-08-01T04:59:35;21.00;;;11.88;;
48911;SDS011;34722;52.108;5.044;2022-08-01T05:02:07;22.00;;;10.23;;
48911;SDS011;34722;52.108;5.044;2022-08-01T05:04:33;18.30;;;10.05;;
48911;SDS011;34722;52.108;5.044;2022-08-01T05:07:00;12.75;;;7.07;;
48911;SDS011;34722;52.108;5.044;2022-08-01T05:09:26;15.68;;;8.23;;
48911;SDS011;34722;52.108;5.044;2022-08-01T05:11:52;8.93;;;6.50;;
48911;SDS011;34722;52.108;5.044;2022-08-01T05:14:18;7.07;;;5.68;;
48911;SDS011;34722;52.108;5.044;2022-08-01T05:16:44;5.50;;;4.50;;
48911;SDS011;34722;52.108;5.044;2022-08-01T05:19:10;6.30;;;4.75;;
48911;SDS011;34722;52.108;5.044;2022-08-01T05:21:36;8.77;;;4.35;;
48911;SDS011;34722;52.108;5.044;2022-08-01T05:24:03;8.77;;;4.30;;
48911;SDS011;34722;52.108;5.044;2022-08-01T05:26:29;6.57;;;4.20;;
48911;SDS011;34722;52.108;5.044;2022-08-01T05:28:55;5.40;;;4.03;;
48911;SDS011;34722;52.108;5.044;2022-08-01T05:31:21;6.25;;;4.65;;
48911;SDS011;34722;52.108;5.044;2022-08-01T05:33:46;8.15;;;4.40;;
48911;SDS011;34722;52.108;5.044;2022-08-01T05:36:12;7.53;;;4.10;;
48911;SDS011;34722;52.108;5.044;2022-08-01T05:38:38;5.70;;;4.38;;
48911;SDS011;34722;52.108;5.044;2022-08-01T05:41:03;8.23;;;4.43;;
48911;SDS011;34722;52.108;5.044;2022-08-01T05:43:29;7.72;;;4.30;;
48911;SDS011;34722;52.108;5.044;2022-08-01T05:45:55;7.68;;;4.35;;
48911;SDS011;34722;52.108;5.044;2022-08-01T05:48:21;8.73;;;3.97;;
48911;SDS011;34722;52.108;5.044;2022-08-01T05:50:46;10.90;;;4.18;;
48911;SDS011;34722;52.108;5.044;2022-08-01T05:53:12;6.43;;;4.40;;
48911;SDS011;34722;52.108;5.044;2022-08-01T05:55:38;6.80;;;4.30;;
48911;SDS011;34722;52.108;5.044;2022-08-01T05:58:04;5.45;;;4.03;;
48911;SDS011;34722;52.108;5.044;2022-08-01T06:00:29;8.23;;;4.25;;
48911;SDS011;34722;52.108;5.044;2022-08-01T06:02:55;4.88;;;4.38;;
48911;SDS011;34722;52.108;5.044;2022-08-01T06:05:21;6.68;;;4.60;;
48911;SDS011;34722;52.108;5.044;2022-08-01T06:07:47;7.32;;;4.93;;
48911;SDS011;34722;52.108;5.044;2022-08-01T06:10:13;7.00;;;4.63;;
48911;SDS011;34722;52.108;5.044;2022-08-01T06:12:38;7.40;;;5.13;;
48911;SDS011;34722;52.108;5.044;2022-08-01T06:15:04;8.75;;;4.80;;
48911;SDS011;34722;52.108;5.044;2022-08-01T06:17:30;8.60;;;5.30;;
48911;SDS011;34722;52.108;5.044;2022-08-01T06:19:56;6.60;;;4.63;;
48911;SDS011;34722;52.108;5.044;2022-08-01T06:22:25;9.75;;;4.82;;
48911;SDS011;34722;52.108;5.044;2022-08-01T06:24:51;8.02;;;4.78;;
48911;SDS011;34722;52.108;5.044;2022-08-01T06:27:16;16.88;;;6.20;;
48911;SDS011;34722;52.108;5.044;2022-08-01T06:29:42;10.98;;;5.00;;
48911;SDS011;34722;52.108;5.044;2022-08-01T06:32:08;12.73;;;5.60;;
48911;SDS011;34722;52.108;5.044;2022-08-01T06:34:34;8.52;;;5.10;;
48911;SDS011;34722;52.108;5.044;2022-08-01T06:37:00;11.25;;;4.65;;
48911;SDS011;34722;52.108;5.044;2022-08-01T06:39:26;14.60;;;5.03;;
48911;SDS011;34722;52.108;5.044;2022-08-01T06:41:51;20.73;;;6.63;;
48911;SDS011;34722;52.108;5.044;2022-08-01T06:44:17;22.38;;;5.32;;
48911;SDS011;34722;52.108;5.044;2022-08-01T06:46:43;18.08;;;5.88;;
48911;SDS011;34722;52.108;5.044;2022-08-01T06:49:08;12.18;;;4.72;;
48911;SDS011;34722;52.108;5.044;2022-08-01T06:51:34;13.68;;;5.10;;
48911;SDS011;34722;52.108;5.044;2022-08-01T06:53:59;16.65;;;4.68;;
48911;SDS011;34722;52.108;5.044;2022-08-01T06:56:25;21.77;;;5.00;;
48911;SDS011;34722;52.108;5.044;2022-08-01T06:58:50;19.17;;;5.05;;
48911;SDS011;34722;52.108;5.044;2022-08-01T07:01:16;14.07;;;4.35;;
48911;SDS011;34722;52.108;5.044;2022-08-01T07:03:42;22.92;;;5.00;;
48911;SDS011;34722;52.108;5.044;2022-08-01T07:06:07;16.02;;;4.32;;
48911;SDS011;34722;52.108;5.044;2022-08-01T07:08:33;18.50;;;4.00;;
48911;SDS011;34722;52.108;5.044;2022-08-01T07:10:58;17.13;;;5.13;;
48911;SDS011;34722;52.108;5.044;2022-08-01T07:13:25;13.77;;;4.20;;
48911;SDS011;34722;52.108;5.044;2022-08-01T07:15:52;7.07;;;2.67;;
48911;SDS011;34722;52.108;5.044;2022-08-01T07:18:18;17.85;;;3.53;;
48911;SDS011;34722;52.108;5.044;2022-08-01T07:20:44;13.85;;;3.78;;
48911;SDS011;34722;52.108;5.044;2022-08-01T07:23:11;14.88;;;3.30;;
48911;SDS011;34722;52.108;5.044;2022-08-01T07:25:37;12.68;;;3.72;;
48911;SDS011;34722;52.108;5.044;2022-08-01T07:28:03;10.63;;;3.58;;
48911;SDS011;34722;52.108;5.044;2022-08-01T07:30:29;8.45;;;2.67;;
48911;SDS011;34722;52.108;5.044;2022-08-01T07:32:55;12.98;;;3.67;;
48911;SDS011;34722;52.108;5.044;2022-08-01T07:35:21;13.77;;;3.00;;
48911;SDS011;34722;52.108;5.044;2022-08-01T07:37:46;10.90;;;2.65;;
48911;SDS011;34722;52.108;5.044;2022-08-01T07:40:12;9.77;;;2.55;;
48911;SDS011;34722;52.108;5.044;2022-08-01T07:42:38;15.02;;;3.03;;
48911;SDS011;34722;52.108;5.044;2022-08-01T07:45:08;14.60;;;2.80;;
48911;SDS011;34722;52.108;5.044;2022-08-01T07:47:34;9.23;;;3.00;;
48911;SDS011;34722;52.108;5.044;2022-08-01T07:50:00;14.25;;;3.13;;
48911;SDS011;34722;52.108;5.044;2022-08-01T07:52:27;13.05;;;2.92;;
48911;SDS011;34722;52.108;5.044;2022-08-01T07:54:53;9.75;;;2.25;;
48911;SDS011;34722;52.108;5.044;2022-08-01T07:57:19;9.63;;;2.00;;
48911;SDS011;34722;52.108;5.044;2022-08-01T07:59:45;10.05;;;2.47;;
48911;SDS011;34722;52.108;5.044;2022-08-01T08:02:10;7.32;;;1.98;;
48911;SDS011;34722;52.108;5.044;2022-08-01T08:04:36;9.35;;;2.30;;
48911;SDS011;34722;52.108;5.044;2022-08-01T08:07:02;6.70;;;1.55;;
48911;SDS011;34722;52.108;5.044;2022-08-01T08:09:27;7.60;;;1.95;;
48911;SDS011;34722;52.108;5.044;2022-08-01T08:11:53;10.70;;;2.38;;
48911;SDS011;34722;52.108;5.044;2022-08-01T08:14:19;7.47;;;2.28;;
48911;SDS011;34722;52.108;5.044;2022-08-01T08:16:47;10.38;;;2.20;;
48911;SDS011;34722;52.108;5.044;2022-08-01T08:19:13;12.57;;;2.63;;
48911;SDS011;34722;52.108;5.044;2022-08-01T08:21:39;8.07;;;1.92;;
48911;SDS011;34722;52.108;5.044;2022-08-01T08:24:05;7.78;;;2.67;;
48911;SDS011;34722;52.108;5.044;2022-08-01T08:26:48;8.48;;;2.20;;
48911;SDS011;34722;52.108;5.044;2022-08-01T08:29:16;10.85;;;2.78;;
48911;SDS011;34722;52.108;5.044;2022-08-01T08:31:42;5.88;;;2.00;;
48911;SDS011;34722;52.108;5.044;2022-08-01T08:34:07;7.78;;;2.28;;
48911;SDS011;34722;52.108;5.044;2022-08-01T08:36:33;4.80;;;1.88;;
48911;SDS011;34722;52.108;5.044;2022-08-01T08:38:59;7.80;;;1.73;;
48911;SDS011;34722;52.108;5.044;2022-08-01T08:41:31;9.75;;;2.00;;
48911;SDS011;34722;52.108;5.044;2022-08-01T08:43:59;9.63;;;2.22;;
48911;SDS011;34722;52.108;5.044;2022-08-01T08:46:32;12.55;;;2.88;;
48911;SDS011;34722;52.108;5.044;2022-08-01T08:48:58;12.25;;;1.90;;
48911;SDS011;34722;52.108;5.044;2022-08-01T08:51:26;4.53;;;1.48;;
48911;SDS011;34722;52.108;5.044;2022-08-01T08:53:55;5.65;;;1.73;;
48911;SDS011;34722;52.108;5.044;2022-08-01T08:56:23;6.60;;;2.35;;
48911;SDS011;34722;52.108;5.044;2022-08-01T08:58:50;8.50;;;2.10;;
48911;SDS011;34722;52.108;5.044;2022-08-01T09:01:17;6.13;;;2.13;;
48911;SDS011;34722;52.108;5.044;2022-08-01T09:03:43;7.50;;;2.33;;
48911;SDS011;34722;52.108;5.044;2022-08-01T09:06:09;9.77;;;1.90;;
48911;SDS011;34722;52.108;5.044;2022-08-01T09:08:35;9.45;;;1.98;;
48911;SDS011;34722;52.108;5.044;2022-08-01T09:11:01;6.15;;;2.03;;
48911;SDS011;34722;52.108;5.044;2022-08-01T09:13:27;9.65;;;2.03;;
48911;SDS011;34722;52.108;5.044;2022-08-01T09:15:53;9.68;;;2.92;;
48911;SDS011;34722;52.108;5.044;2022-08-01T09:23:34;9.05;;;2.38;;
48911;SDS011;34722;52.108;5.044;2022-08-01T09:26:04;8.68;;;2.10;;
48911;SDS011;34722;52.108;5.044;2022-08-01T09:28:31;8.57;;;2.30;;
48911;SDS011;34722;52.108;5.044;2022-08-01T09:30:57;10.73;;;2.63;;
48911;SDS011;34722;52.108;5.044;2022-08-01T09:33:23;6.70;;;2.03;;
48911;SDS011;34722;52.108;5.044;2022-08-01T09:35:55;10.35;;;2.60;;
48911;SDS011;34722;52.108;5.044;2022-08-01T09:43:20;13.18;;;3.55;;
48911;SDS011;34722;52.108;5.044;2022-08-01T09:45:47;7.05;;;2.65;;
48911;SDS011;34722;52.108;5.044;2022-08-01T09:48:14;11.82;;;2.88;;
48911;SDS011;34722;52.108;5.044;2022-08-01T09:50:44;10.25;;;2.67;;
48911;SDS011;34722;52.108;5.044;2022-08-01T09:53:11;10.20;;;2.58;;
48911;SDS011;34722;52.108;5.044;2022-08-01T09:55:38;12.15;;;2.95;;
48911;SDS011;34722;52.108;5.044;2022-08-01T09:58:04;7.68;;;2.10;;
48911;SDS011;34722;52.108;5.044;2022-08-01T10:00:31;9.52;;;2.65;;
48911;SDS011;34722;52.108;5.044;2022-08-01T10:02:58;5.65;;;2.00;;
48911;SDS011;34722;52.108;5.044;2022-08-01T10:05:31;6.80;;;2.40;;
48911;SDS011;34722;52.108;5.044;2022-08-01T10:07:59;11.70;;;2.25;;
48911;SDS011;34722;52.108;5.044;2022-08-01T10:10:27;11.52;;;2.40;;
48911;SDS011;34722;52.108;5.044;2022-08-01T10:12:52;9.60;;;2.58;;
48911;SDS011;34722;52.108;5.044;2022-08-01T10:15:20;9.63;;;2.42;;
48911;SDS011;34722;52.108;5.044;2022-08-01T10:17:51;12.95;;;2.53;;
48911;SDS011;34722;52.108;5.044;2022-08-01T10:20:20;4.45;;;1.67;;
48911;SDS011;34722;52.108;5.044;2022-08-01T10:22:48;7.97;;;2.33;;
48911;SDS011;34722;52.108;5.044;2022-08-01T10:25:17;10.10;;;2.30;;
48911;SDS011;34722;52.108;5.044;2022-08-01T10:27:44;7.13;;;2.30;;
48911;SDS011;34722;52.108;5.044;2022-08-01T10:30:14;5.82;;;1.92;;
48911;SDS011;34722;52.108;5.044;2022-08-01T10:32:40;8.23;;;2.38;;
48911;SDS011;34722;52.108;5.044;2022-08-01T10:35:09;8.40;;;2.38;;
48911;SDS011;34722;52.108;5.044;2022-08-01T10:37:42;9.60;;;2.38;;
48911;SDS011;34722;52.108;5.044;2022-08-01T10:40:11;8.70;;;2.22;;
48911;SDS011;34722;52.108;5.044;2022-08-01T10:42:39;8.52;;;2.30;;
48911;SDS011;34722;52.108;5.044;2022-08-01T10:45:11;9.18;;;2.30;;
48911;SDS011;34722;52.108;5.044;2022-08-01T10:47:44;9.55;;;2.65;;
48911;SDS011;34722;52.108;5.044;2022-08-01T10:50:37;8.30;;;2.75;;
48911;SDS011;34722;52.108;5.044;2022-08-01T10:58:36;8.90;;;2.83;;
48911;SDS011;34722;52.108;5.044;2022-08-01T11:06:41;13.10;;;2.85;;
48911;SDS011;34722;52.108;5.044;2022-08-01T11:09:38;6.57;;;2.50;;
48911;SDS011;34722;52.108;5.044;2022-08-01T11:12:13;10.98;;;2.53;;
48911;SDS011;34722;52.108;5.044;2022-08-01T11:17:30;11.15;;;2.63;;
48911;SDS011;34722;52.108;5.044;2022-08-01T11:20:04;8.77;;;2.83;;
48911;SDS011;34722;52.108;5.044;2022-08-01T11:22:30;8.35;;;2.85;;
48911;SDS011;34722;52.108;5.044;2022-08-01T11:24:56;8.25;;;2.22;;
48911;SDS011;34722;52.108;5.044;2022-08-01T11:27:29;7.10;;;2.30;;
48911;SDS011;34722;52.108;5.044;2022-08-01T11:32:55;8.40;;;2.13;;
48911;SDS011;34722;52.108;5.044;2022-08-01T11:35:23;5.90;;;1.95;;
48911;SDS011;34722;52.108;5.044;2022-08-01T11:37:51;3.53;;;2.00;;
48911;SDS011;34722;52.108;5.044;2022-08-01T11:43:36;5.68;;;1.88;;
48911;SDS011;34722;52.108;5.044;2022-08-01T11:45:47;6.00;;;2.42;;
48911;SDS011;34722;52.108;5.044;2022-08-01T11:48:23;4.45;;;1.60;;
48911;SDS011;34722;52.108;5.044;2022-08-01T11:50:54;6.43;;;2.40;;
48911;SDS011;34722;52.108;5.044;2022-08-01T11:53:21;6.53;;;2.30;;
48911;SDS011;34722;52.108;5.044;2022-08-01T11:55:51;6.05;;;1.70;;
48911;SDS011;34722;52.108;5.044;2022-08-01T11:58:22;10.52;;;2.55;;
48911;SDS011;34722;52.108;5.044;2022-08-01T12:00:56;9.05;;;2.65;;
48911;SDS011;34722;52.108;5.044;2022-08-01T12:03:26;4.75;;;2.10;;
48911;SDS011;34722;52.108;5.044;2022-08-01T12:05:53;7.00;;;2.05;;
48911;SDS011;34722;52.108;5.044;2022-08-01T12:08:26;5.55;;;2.20;;
48911;SDS011;34722;52.108;5.044;2022-08-01T12:10:53;7.95;;;2.15;;
48911;SDS011;34722;52.108;5.044;2022-08-01T12:13:19;7.25;;;2.25;;
48911;SDS011;34722;52.108;5.044;2022-08-01T12:15:46;4.10;;;1.58;;
48911;SDS011;34722;52.108;5.044;2022-08-01T12:18:12;5.82;;;1.73;;
48911;SDS011;34722;52.108;5.044;2022-08-01T12:20:39;5.93;;;2.20;;
48911;SDS011;34722;52.108;5.044;2022-08-01T12:23:16;7.32;;;2.30;;
48911;SDS011;34722;52.108;5.044;2022-08-01T12:25:41;6.05;;;2.00;;
48911;SDS011;34722;52.108;5.044;2022-08-01T12:28:12;5.10;;;1.83;;
48911;SDS011;34722;52.108;5.044;2022-08-01T12:30:38;4.93;;;1.42;;
48911;SDS011;34722;52.108;5.044;2022-08-01T12:33:09;8.15;;;2.13;;
48911;SDS011;34722;52.108;5.044;2022-08-01T12:35:41;6.35;;;2.13;;
48911;SDS011;34722;52.108;5.044;2022-08-01T12:38:13;8.82;;;2.15;;
48911;SDS011;34722;52.108;5.044;2022-08-01T12:40:41;7.43;;;1.60;;
48911;SDS011;34722;52.108;5.044;2022-08-01T12:43:08;2.03;;;1.38;;
48911;SDS011;34722;52.108;5.044;2022-08-01T12:45:36;2.60;;;1.25;;
48911;SDS011;34722;52.108;5.044;2022-08-01T12:48:08;3.60;;;1.50;;
48911;SDS011;34722;52.108;5.044;2022-08-01T12:50:39;2.03;;;1.25;;
48911;SDS011;34722;52.108;5.044;2022-08-01T12:53:07;6.85;;;1.63;;
48911;SDS011;34722;52.108;5.044;2022-08-01T12:55:40;6.63;;;1.58;;
48911;SDS011;34722;52.108;5.044;2022-08-01T12:58:16;2.15;;;1.20;;
48911;SDS011;34722;52.108;5.044;2022-08-01T13:00:45;5.03;;;1.77;;
48911;SDS011;34722;52.108;5.044;2022-08-01T13:05:46;5.13;;;1.27;;
48911;SDS011;34722;52.108;5.044;2022-08-01T13:08:16;3.60;;;1.50;;
48911;SDS011;34722;52.108;5.044;2022-08-01T13:10:49;2.83;;;1.52;;
48911;SDS011;34722;52.108;5.044;2022-08-01T13:13:24;3.72;;;1.42;;
48911;SDS011;34722;52.108;5.044;2022-08-01T13:16:05;4.63;;;1.77;;
48911;SDS011;34722;52.108;5.044;2022-08-01T13:18:33;5.20;;;1.63;;
48911;SDS011;34722;52.108;5.044;2022-08-01T13:21:16;3.60;;;1.70;;
48911;SDS011;34722;52.108;5.044;2022-08-01T13:26:46;5.45;;;1.63;;
48911;SDS011;34722;52.108;5.044;2022-08-01T13:29:29;2.28;;;1.27;;
48911;SDS011;34722;52.108;5.044;2022-08-01T13:31:56;3.33;;;1.50;;
48911;SDS011;34722;52.108;5.044;2022-08-01T13:34:29;5.38;;;1.95;;
48911;SDS011;34722;52.108;5.044;2022-08-01T13:36:56;3.95;;;1.50;;
48911;SDS011;34722;52.108;5.044;2022-08-01T13:39:22;3.78;;;1.90;;
48911;SDS011;34722;52.108;5.044;2022-08-01T13:44:32;3.33;;;1.70;;
48911;SDS011;34722;52.108;5.044;2022-08-01T13:46:57;6.32;;;1.80;;
48911;SDS011;34722;52.108;5.044;2022-08-01T13:49:23;4.28;;;1.80;;
48911;SDS011;34722;52.108;5.044;2022-08-01T13:51:49;5.03;;;1.67;;
48911;SDS011;34722;52.108;5.044;2022-08-01T13:54:17;3.35;;;1.48;;
48911;SDS011;34722;52.108;5.044;2022-08-01T13:56:43;6.70;;;1.75;;
48911;SDS011;34722;52.108;5.044;2022-08-01T13:59:09;5.38;;;1.88;;
48911;SDS011;34722;52.108;5.044;2022-08-01T14:01:34;7.10;;;2.00;;
48911;SDS011;34722;52.108;5.044;2022-08-01T14:04:00;6.60;;;3.20;;
48911;SDS011;34722;52.108;5.044;2022-08-01T14:06:27;8.35;;;1.83;;
48911;SDS011;34722;52.108;5.044;2022-08-01T14:08:52;9.88;;;2.00;;
48911;SDS011;34722;52.108;5.044;2022-08-01T14:11:18;8.25;;;2.45;;
48911;SDS011;34722;52.108;5.044;2022-08-01T14:13:44;5.85;;;2.15;;
48911;SDS011;34722;52.108;5.044;2022-08-01T14:16:09;3.67;;;1.70;;
48911;SDS011;34722;52.108;5.044;2022-08-01T14:18:35;8.32;;;2.00;;
48911;SDS011;34722;52.108;5.044;2022-08-01T14:21:01;6.45;;;2.42;;
48911;SDS011;34722;52.108;5.044;2022-08-01T14:23:27;3.83;;;2.15;;
48911;SDS011;34722;52.108;5.044;2022-08-01T14:25:52;8.27;;;2.30;;
48911;SDS011;34722;52.108;5.044;2022-08-01T14:28:18;4.32;;;1.83;;
48911;SDS011;34722;52.108;5.044;2022-08-01T14:30:44;6.65;;;2.40;;
48911;SDS011;34722;52.108;5.044;2022-08-01T14:33:10;7.78;;;2.75;;
48911;SDS011;34722;52.108;5.044;2022-08-01T14:35:36;8.60;;;1.90;;
48911;SDS011;34722;52.108;5.044;2022-08-01T14:38:02;5.40;;;2.13;;
48911;SDS011;34722;52.108;5.044;2022-08-01T14:40:28;9.45;;;2.15;;
48911;SDS011;34722;52.108;5.044;2022-08-01T14:42:54;9.05;;;2.15;;
48911;SDS011;34722;52.108;5.044;2022-08-01T14:45:19;3.83;;;2.17;;
48911;SDS011;34722;52.108;5.044;2022-08-01T14:47:45;9.00;;;1.80;;
48911;SDS011;34722;52.108;5.044;2022-08-01T14:50:12;5.13;;;2.10;;
48911;SDS011;34722;52.108;5.044;2022-08-01T14:52:39;4.72;;;2.20;;
48911;SDS011;34722;52.108;5.044;2022-08-01T14:55:07;8.77;;;2.10;;
48911;SDS011;34722;52.108;5.044;2022-08-01T14:57:34;5.15;;;2.20;;
48911;SDS011;34722;52.108;5.044;2022-08-01T15:00:00;5.32;;;2.15;;
48911;SDS011;34722;52.108;5.044;2022-08-01T15:02:26;6.38;;;2.42;;
48911;SDS011;34722;52.108;5.044;2022-08-01T15:04:51;8.48;;;2.50;;
48911;SDS011;34722;52.108;5.044;2022-08-01T15:07:18;5.38;;;2.00;;
48911;SDS011;34722;52.108;5.044;2022-08-01T15:09:44;8.80;;;2.13;;
48911;SDS011;34722;52.108;5.044;2022-08-01T15:12:10;4.28;;;2.00;;
48911;SDS011;34722;52.108;5.044;2022-08-01T15:14:36;5.03;;;1.95;;
48911;SDS011;34722;52.108;5.044;2022-08-01T15:19:45;12.25;;;2.40;;
48911;SDS011;34722;52.108;5.044;2022-08-01T15:22:14;4.05;;;2.13;;
48911;SDS011;34722;52.108;5.044;2022-08-01T15:24:40;81.00;;;73.60;;
48911;SDS011;34722;52.108;5.044;2022-08-01T15:27:07;73.75;;;66.50;;
48911;SDS011;34722;52.108;5.044;2022-08-01T15:29:33;11.20;;;8.10;;
48911;SDS011;34722;52.108;5.044;2022-08-01T15:31:59;8.45;;;6.85;;
48911;SDS011;34722;52.108;5.044;2022-08-01T15:34:25;20.45;;;18.33;;
48911;SDS011;34722;52.108;5.044;2022-08-01T15:36:51;5.38;;;1.75;;
48911;SDS011;34722;52.108;5.044;2022-08-01T15:39:17;5.80;;;1.85;;